Skip Navigation Links
NOAA logo - Click to go to the NOAA homepage
NOAA's National Weather Service
Alaska Aviation Weather Unit
  NWS logo - Click to go to the NWS homepage
Left Navbar Graphic     01 AKDT = 09 GMT

   
NOAA is celebrating 200 years of science, service, and stewardship. Visit the NOAA 200th celebration Web site to learn more.
USA.gov is the U.S. Government's official Web portal to all Federal, state and local government Web resources and services.
Facebook
NWS on Facebook

Important Change Regarding the AAWU Web Presence

 

Over the last several months, the AAWU has been working to navigate its webpages to a nationally supported server. Security, as well as other needs, have necessitated the change.  We have been given an extension for the site changeover while we diligently work at addressing feedback received. As of July 14, 2017, aawu.arh.noaa.gov will be discontinued. The new AAWU web address is weather.gov/aawu. It is now live and will run in-parallel with the old site until it is discontinued on July 14, 2017. Please continue to send any feedback or questions regarding the new webpages to nws.ar.aawu.webauthors@noaa.gov.  Thank you for your patience during this time of transition.
AAWU Home :: Display TAF Add Bookmark
TESTM WHMA2 190319Z AUTO 0606KT FEW007 BKN022 10/09 A2976 RMK A02 SLP077 T01020088

TESTM WHMA2 190349Z AUTO 0405KT OVC019 10/08 A2975 RMK A02 SLP073 P0017 T01040084

TESTM WHMA2 190419Z AUTO 00000KT OVC025 10/09 A2976 RMK A02 SLP076 T00990086

TESTM WHMA2 190449Z AUTO 00000KT OVC025 10/09 A2976 RMK A02 SLP077 P0008 T00960088

TESTM WHMA2 190520Z AUTO 00000KT OVC026 10/09 A2976 RMK A02 SLP078 T00950088

TESTM WHMA2 190549Z AUTO 00000KT OVC021 09/09 A2977 RMK A02 SLP080 P0012 T00930086

TESTM WHMA2 190619Z AUTO 2103KT FEW013 OVC029 09/09 A2977 RMK A02 SLP081 T00910086

TESTM WHMA2 190649Z AUTO 00000KT OVC029 09/09 A2977 RMK A02 SLP080 P0029 T00910086

TESTM WHMA2 190719Z AUTO 00000KT OVC022 09/09 A2977 RMK A02 SLP081 T00920088

TESTM WHMA2 190749Z AUTO 00000KT OVC028 09/09 A2976 RMK A02 SLP079 P0019 T00900086

TESTM WHMA2 190819Z AUTO 00000KT OVC030 09/08 A2977 RMK A02 SLP080 T00890085

TESTM WHMA2 190849Z AUTO 00000KT OVC036 09/08 A2977 RMK A02 SLP080 P0004 T00860078


NOAA's National Weather Service
Alaska Aviation Weather Unit
6930 Sand Lake Road
Anchorage, AK 99502-1845
Disclaimer
Credits
Glossary
Privacy Policy
About Us
Career Opportunities
Contact AAWU Internet Services Site last modified: April, 17th 2012